sensor_id;sensor_type;location;lat;lon;timestamp;temperature;humidity
23495;DHT22;26107;50.832;2.950;2022-09-09T00:03:59;16.40;99.90
23495;DHT22;26107;50.832;2.950;2022-09-09T00:34:11;16.30;99.90
23495;DHT22;26107;50.832;2.950;2022-09-09T01:04:14;16.20;99.90
23495;DHT22;26107;50.832;2.950;2022-09-09T01:19:22;16.10;99.90
23495;DHT22;26107;50.832;2.950;2022-09-09T01:34:35;15.90;99.90
23495;DHT22;26107;50.832;2.950;2022-09-09T01:49:36;16.10;99.90
23495;DHT22;26107;50.832;2.950;2022-09-09T02:04:38;16.20;99.90
23495;DHT22;26107;50.832;2.950;2022-09-09T02:19:40;16.10;99.90
23495;DHT22;26107;50.832;2.950;2022-09-09T02:34:44;16.00;99.90
23495;DHT22;26107;50.832;2.950;2022-09-09T03:04:58;15.80;99.90
23495;DHT22;26107;50.832;2.950;2022-09-09T03:19:58;16.00;99.90
23495;DHT22;26107;50.832;2.950;2022-09-09T03:34:59;15.80;99.90
23495;DHT22;26107;50.832;2.950;2022-09-09T03:49:59;16.10;99.90
23495;DHT22;26107;50.832;2.950;2022-09-09T04:05:00;15.80;99.90
23495;DHT22;26107;50.832;2.950;2022-09-09T04:20:01;15.80;99.90
23495;DHT22;26107;50.832;2.950;2022-09-09T04:35:01;15.80;99.90
23495;DHT22;26107;50.832;2.950;2022-09-09T04:50:02;15.70;99.90
23495;DHT22;26107;50.832;2.950;2022-09-09T05:05:03;15.70;99.90
23495;DHT22;26107;50.832;2.950;2022-09-09T05:20:03;15.50;99.90
23495;DHT22;26107;50.832;2.950;2022-09-09T05:35:04;15.50;99.90
23495;DHT22;26107;50.832;2.950;2022-09-09T05:50:05;15.60;99.90
23495;DHT22;26107;50.832;2.950;2022-09-09T06:05:06;15.70;99.90
23495;DHT22;26107;50.832;2.950;2022-09-09T06:20:07;15.70;99.90
23495;DHT22;26107;50.832;2.950;2022-09-09T06:35:09;15.50;99.90
23495;DHT22;26107;50.832;2.950;2022-09-09T06:50:11;15.40;99.90
23495;DHT22;26107;50.832;2.950;2022-09-09T07:05:11;15.30;99.90
23495;DHT22;26107;50.832;2.950;2022-09-09T07:20:12;15.40;99.90
23495;DHT22;26107;50.832;2.950;2022-09-09T07:35:12;15.50;99.90
23495;DHT22;26107;50.832;2.950;2022-09-09T07:50:13;15.40;99.90
23495;DHT22;26107;50.832;2.950;2022-09-09T08:05:13;15.50;99.90
23495;DHT22;26107;50.832;2.950;2022-09-09T08:20:15;15.40;99.90
23495;DHT22;26107;50.832;2.950;2022-09-09T08:35:15;15.80;99.90
23495;DHT22;26107;50.832;2.950;2022-09-09T09:05:19;16.00;99.90
23495;DHT22;26107;50.832;2.950;2022-09-09T09:20:26;16.10;99.90
23495;DHT22;26107;50.832;2.950;2022-09-09T09:35:30;16.30;99.90
23495;DHT22;26107;50.832;2.950;2022-09-09T09:50:30;16.40;99.90
23495;DHT22;26107;50.832;2.950;2022-09-09T10:05:31;16.20;99.90
23495;DHT22;26107;50.832;2.950;2022-09-09T10:20:45;16.50;99.90
23495;DHT22;26107;50.832;2.950;2022-09-09T11:06:05;16.90;99.90
23495;DHT22;26107;50.832;2.950;2022-09-09T11:21:07;17.30;99.90
23495;DHT22;26107;50.832;2.950;2022-09-09T11:51:28;17.30;99.90
23495;DHT22;26107;50.832;2.950;2022-09-09T12:06:30;17.50;99.90
23495;DHT22;26107;50.832;2.950;2022-09-09T12:36:41;18.60;99.90
23495;DHT22;26107;50.832;2.950;2022-09-09T12:51:45;18.30;99.90
23495;DHT22;26107;50.832;2.950;2022-09-09T13:06:46;18.70;99.90
23495;DHT22;26107;50.832;2.950;2022-09-09T13:21:46;19.20;99.90
23495;DHT22;26107;50.832;2.950;2022-09-09T13:36:47;19.10;99.90
23495;DHT22;26107;50.832;2.950;2022-09-09T13:51:49;19.60;99.90
23495;DHT22;26107;50.832;2.950;2022-09-09T14:06:50;19.60;99.90
23495;DHT22;26107;50.832;2.950;2022-09-09T14:21:51;19.20;99.90
23495;DHT22;26107;50.832;2.950;2022-09-09T14:36:52;19.20;99.90
23495;DHT22;26107;50.832;2.950;2022-09-09T14:51:52;18.90;99.90
23495;DHT22;26107;50.832;2.950;2022-09-09T15:06:53;18.20;99.90
23495;DHT22;26107;50.832;2.950;2022-09-09T15:21:54;18.30;99.90
23495;DHT22;26107;50.832;2.950;2022-09-09T15:36:54;18.80;99.90
23495;DHT22;26107;50.832;2.950;2022-09-09T15:51:56;19.10;99.90
23495;DHT22;26107;50.832;2.950;2022-09-09T16:07:06;18.60;99.90
23495;DHT22;26107;50.832;2.950;2022-09-09T16:22:06;18.70;99.90
23495;DHT22;26107;50.832;2.950;2022-09-09T16:37:07;18.50;99.90
23495;DHT22;26107;50.832;2.950;2022-09-09T16:52:08;18.40;99.90
23495;DHT22;26107;50.832;2.950;2022-09-09T17:07:08;18.30;99.90
23495;DHT22;26107;50.832;2.950;2022-09-09T17:22:10;18.80;99.90
23495;DHT22;26107;50.832;2.950;2022-09-09T17:37:11;17.70;99.90
23495;DHT22;26107;50.832;2.950;2022-09-09T17:52:12;18.30;99.90
23495;DHT22;26107;50.832;2.950;2022-09-09T18:07:12;17.70;99.90
23495;DHT22;26107;50.832;2.950;2022-09-09T18:22:13;17.40;99.90
23495;DHT22;26107;50.832;2.950;2022-09-09T18:37:13;17.80;99.90
23495;DHT22;26107;50.832;2.950;2022-09-09T18:52:14;17.60;99.90
23495;DHT22;26107;50.832;2.950;2022-09-09T19:07:15;17.50;99.90
23495;DHT22;26107;50.832;2.950;2022-09-09T19:22:17;17.40;99.90
23495;DHT22;26107;50.832;2.950;2022-09-09T19:37:18;17.60;99.90
23495;DHT22;26107;50.832;2.950;2022-09-09T19:52:19;17.50;99.90
23495;DHT22;26107;50.832;2.950;2022-09-09T20:07:20;17.20;99.90
23495;DHT22;26107;50.832;2.950;2022-09-09T20:22:20;17.10;99.90
23495;DHT22;26107;50.832;2.950;2022-09-09T20:37:20;16.90;99.90
23495;DHT22;26107;50.832;2.950;2022-09-09T20:52:23;16.90;99.90
23495;DHT22;26107;50.832;2.950;2022-09-09T21:07:23;17.10;99.90
23495;DHT22;26107;50.832;2.950;2022-09-09T21:22:24;16.90;99.90
23495;DHT22;26107;50.832;2.950;2022-09-09T21:37:24;16.80;99.90
23495;DHT22;26107;50.832;2.950;2022-09-09T21:52:25;16.80;99.90
23495;DHT22;26107;50.832;2.950;2022-09-09T22:07:27;16.60;99.90
23495;DHT22;26107;50.832;2.950;2022-09-09T22:22:27;16.40;99.90
23495;DHT22;26107;50.832;2.950;2022-09-09T22:37:28;16.30;99.90
23495;DHT22;26107;50.832;2.950;2022-09-09T22:52:28;16.30;99.90
23495;DHT22;26107;50.832;2.950;2022-09-09T23:07:31;16.40;99.90
23495;DHT22;26107;50.832;2.950;2022-09-09T23:22:31;16.40;99.90
23495;DHT22;26107;50.832;2.950;2022-09-09T23:37:34;16.20;99.90
23495;DHT22;26107;50.832;2.950;2022-09-09T23:52:34;16.10;99.90
